Terminal Aerodrome Forecast
Issued by NWS Jackson, MS

Home | Current Version | Previous Version | Text Only | Print | Product List | Glossary On
Versions: 1 2 3 4 5 6 7 8 9 10 11 12 13 14 15 16 17 18 19 20 21
000
FTUS44 KJAN 071735
TAFHBG
TAF
KHBG 071735Z 0718/0818 22012KT P6SM FEW025 SCT035
     FM072300 19006KT P6SM FEW050 SCT250
     FM080900 18006KT P6SM SCT004 BKN010
      TEMPO 0811/0815 OVC004
     FM081500 20010KT P6SM SCT010 SCT020=

USA.gov is the U.S. government's official web portal to all federal, state and local government web resources and services.